createdAt,value
2023-05-05T00:04:50.176Z,5.13
2023-05-05T00:09:51.778Z,5.07
2023-05-05T00:14:53.395Z,4.55
2023-05-05T00:19:54.990Z,4.63
2023-05-05T00:24:56.590Z,5.40
2023-05-05T00:29:58.176Z,6.18
2023-05-05T00:35:00.043Z,5.25
2023-05-05T00:40:01.959Z,6.38
2023-05-05T00:45:04.175Z,5.78
2023-05-05T00:50:09.486Z,5.22
2023-05-05T00:55:11.448Z,4.47
2023-05-05T01:00:13.588Z,4.65
2023-05-05T01:05:16.313Z,5.30
2023-05-05T01:10:54.481Z,5.25
2023-05-05T01:16:07.885Z,5.20
2023-05-05T01:21:27.693Z,6.45
2023-05-05T01:26:52.552Z,5.90
2023-05-05T01:31:57.266Z,5.78
2023-05-05T01:37:08.294Z,5.55
2023-05-05T01:42:15.004Z,5.75
2023-05-05T01:47:19.545Z,5.57
2023-05-05T01:52:22.679Z,7.18
2023-05-05T01:57:26.500Z,5.80
2023-05-05T02:02:28.974Z,7.15
2023-05-05T02:07:33.666Z,5.80
2023-05-05T02:12:37.229Z,5.68
2023-05-05T02:17:42.693Z,5.05
2023-05-05T02:22:44.624Z,5.45
2023-05-05T02:27:48.463Z,4.53
2023-05-05T02:32:58.900Z,5.05
2023-05-05T02:38:05.587Z,4.55
2023-05-05T02:43:18.173Z,4.93
2023-05-05T02:48:21.066Z,4.93
2023-05-05T02:53:27.121Z,5.32
2023-05-05T02:58:46.174Z,7.35
2023-05-05T03:04:14.762Z,6.18
2023-05-05T03:09:27.739Z,6.28
2023-05-05T03:14:38.896Z,5.28
2023-05-05T03:19:43.129Z,6.80
2023-05-05T03:24:49.939Z,8.05
2023-05-05T03:29:52.521Z,6.28
2023-05-05T03:34:54.564Z,7.32
2023-05-05T03:40:01.324Z,6.82
2023-05-05T03:45:03.605Z,6.78
2023-05-05T03:50:06.885Z,7.90
2023-05-05T03:55:10.688Z,6.82
2023-05-05T04:00:12.869Z,8.15
2023-05-05T04:05:17.378Z,6.53
2023-05-05T04:10:19.197Z,6.75
2023-05-05T04:15:21.642Z,6.25
2023-05-05T04:20:23.588Z,6.03
2023-05-05T04:25:25.573Z,6.15
2023-05-05T04:30:27.738Z,6.13
2023-05-05T04:35:29.645Z,5.85
2023-05-05T04:40:32.100Z,5.35
2023-05-05T04:45:34.349Z,4.78
2023-05-05T04:50:37.105Z,5.10
2023-05-05T04:55:39.574Z,5.45
2023-05-05T05:00:41.409Z,5.28
2023-05-05T05:05:43.328Z,5.15
2023-05-05T05:10:45.323Z,4.75
2023-05-05T05:15:47.028Z,5.45
2023-05-05T05:20:48.778Z,5.75
2023-05-05T05:25:51.172Z,5.70
2023-05-05T05:30:55.108Z,5.28
2023-05-05T05:35:58.179Z,4.90
2023-05-05T05:41:05.208Z,5.53
2023-05-05T05:46:09.439Z,5.28
2023-05-05T05:51:13.591Z,6.93
2023-05-05T05:56:15.711Z,5.80
2023-05-05T06:01:17.996Z,6.03
2023-05-05T06:06:20.603Z,6.13
2023-05-05T06:11:22.504Z,6.03
2023-05-05T06:16:24.434Z,5.55
2023-05-05T06:21:27.844Z,6.75
2023-05-05T06:26:31.454Z,8.13
2023-05-05T06:31:33.259Z,7.80
2023-05-05T06:36:35.743Z,8.30
2023-05-05T06:41:37.643Z,8.73
2023-05-05T06:46:39.431Z,9.15
2023-05-05T06:51:42.733Z,8.23
2023-05-05T06:56:44.628Z,9.00
2023-05-05T07:01:46.279Z,8.27
2023-05-05T07:06:47.867Z,8.68
2023-05-05T07:11:49.557Z,9.30
2023-05-05T07:16:51.637Z,10.50
2023-05-05T07:21:53.421Z,9.30
2023-05-05T07:26:55.958Z,12.55
2023-05-05T07:31:58.569Z,10.38
2023-05-05T07:37:00.453Z,10.65
2023-05-05T07:42:02.447Z,10.88
2023-05-05T07:47:04.097Z,11.23
2023-05-05T07:52:05.928Z,11.23
2023-05-05T07:57:07.519Z,10.88
2023-05-05T08:02:15.108Z,9.85
2023-05-05T08:07:17.019Z,9.82
2023-05-05T08:12:19.442Z,8.68
2023-05-05T08:17:21.066Z,10.20
2023-05-05T08:22:22.757Z,8.93
2023-05-05T08:27:24.350Z,8.40
2023-05-05T08:32:27.825Z,7.10
2023-05-05T08:37:31.050Z,6.40
2023-05-05T08:42:38.460Z,6.10
2023-05-05T08:47:42.047Z,6.93
2023-05-05T08:52:50.699Z,6.07
2023-05-05T08:57:57.309Z,6.53
2023-05-05T09:03:01.185Z,6.72
2023-05-05T09:08:05.525Z,7.68
2023-05-05T09:13:07.439Z,6.30
2023-05-05T09:18:09.605Z,5.25
2023-05-05T09:23:16.838Z,4.78
2023-05-05T09:28:18.611Z,3.90
2023-05-05T09:33:30.523Z,3.85
2023-05-05T09:38:32.264Z,2.72
2023-05-05T09:43:51.849Z,3.35
2023-05-05T09:48:53.992Z,3.63
2023-05-05T09:53:55.637Z,4.32
2023-05-05T09:59:11.884Z,3.78
2023-05-05T10:04:42.973Z,3.35
2023-05-05T10:09:44.628Z,4.30
2023-05-05T10:14:46.501Z,3.90
2023-05-05T10:19:52.193Z,3.90
2023-05-05T10:25:01.693Z,5.28
2023-05-05T10:30:07.733Z,3.85
2023-05-05T10:35:11.304Z,3.22
2023-05-05T10:40:14.746Z,3.08
2023-05-05T10:45:16.790Z,3.30
2023-05-05T10:50:31.372Z,4.25
2023-05-05T10:56:02.456Z,3.50
2023-05-05T11:01:06.061Z,2.88
2023-05-05T11:06:07.778Z,2.63
2023-05-05T11:11:10.879Z,2.90
2023-05-05T11:16:45.814Z,2.95
2023-05-05T11:22:00.757Z,2.70
2023-05-05T11:27:03.453Z,3.00
2023-05-05T11:32:13.065Z,2.75
2023-05-05T11:37:16.209Z,2.35
2023-05-05T11:42:25.763Z,2.70
2023-05-05T11:47:29.217Z,2.17
2023-05-05T11:52:30.914Z,2.45
2023-05-05T11:57:32.588Z,2.80
2023-05-05T12:02:34.719Z,2.30
2023-05-05T12:07:36.401Z,2.10
2023-05-05T12:12:40.547Z,2.28
2023-05-05T12:17:46.004Z,2.10
2023-05-05T12:22:48.129Z,1.65
2023-05-05T12:27:53.226Z,2.20
2023-05-05T12:33:07.925Z,1.88
2023-05-05T12:38:09.731Z,2.03
2023-05-05T12:43:44.207Z,1.70
2023-05-05T12:48:48.358Z,1.90
2023-05-05T12:54:08.409Z,1.48
2023-05-05T12:59:22.301Z,1.63
2023-05-05T13:04:25.689Z,1.90
2023-05-05T13:09:35.827Z,1.75
2023-05-05T13:14:39.932Z,1.90
2023-05-05T13:19:46.516Z,1.50
2023-05-05T13:24:52.453Z,1.83
2023-05-05T13:29:54.562Z,1.60
2023-05-05T13:34:56.284Z,1.80
2023-05-05T13:40:00.236Z,1.70
2023-05-05T13:45:01.861Z,1.77
2023-05-05T13:50:03.880Z,1.58
2023-05-05T13:55:06.301Z,1.55
2023-05-05T14:00:09.007Z,1.80
2023-05-05T14:05:10.855Z,1.58
2023-05-05T14:10:13.062Z,1.50
2023-05-05T14:15:14.920Z,1.50
2023-05-05T14:20:16.553Z,1.40
2023-05-05T14:25:18.231Z,1.58
2023-05-05T14:30:19.869Z,1.48
2023-05-05T14:35:21.480Z,1.33
2023-05-05T14:40:23.596Z,1.55
2023-05-05T14:45:26.340Z,1.63
2023-05-05T14:50:28.180Z,1.55
2023-05-05T14:55:29.830Z,1.80
2023-05-05T15:00:31.520Z,1.80
2023-05-05T15:05:33.365Z,1.58
2023-05-05T15:10:34.937Z,1.42
2023-05-05T15:15:36.930Z,1.90
2023-05-05T15:20:38.582Z,1.67
2023-05-05T15:25:40.385Z,1.30
2023-05-05T15:30:41.965Z,1.70
2023-05-05T15:35:43.594Z,1.75
2023-05-05T15:40:47.713Z,1.83
2023-05-05T15:45:51.772Z,1.70
2023-05-05T15:50:53.417Z,1.60
2023-05-05T15:55:55.078Z,1.77
2023-05-05T16:00:56.684Z,1.75
2023-05-05T16:05:58.444Z,1.90
2023-05-05T16:11:00.067Z,1.45
2023-05-05T16:16:01.750Z,1.60
2023-05-05T16:21:03.421Z,2.03
2023-05-05T16:26:05.166Z,1.73
2023-05-05T16:31:06.972Z,1.60
2023-05-05T16:36:12.405Z,1.48
2023-05-05T16:41:14.193Z,1.70
2023-05-05T16:46:16.255Z,2.10
2023-05-05T16:51:18.351Z,1.92
2023-05-05T16:56:21.149Z,1.67
2023-05-05T17:01:22.895Z,4.47
2023-05-05T17:06:24.560Z,2.60
2023-05-05T17:11:26.709Z,2.47
2023-05-05T17:16:28.459Z,3.00
2023-05-05T17:21:30.116Z,2.00
2023-05-05T17:26:31.820Z,2.33
2023-05-05T17:31:33.497Z,1.90
2023-05-05T17:36:35.494Z,2.17
2023-05-05T17:41:37.868Z,2.80
2023-05-05T17:46:40.378Z,2.40
2023-05-05T17:51:41.986Z,2.20
2023-05-05T17:56:43.542Z,2.30
2023-05-05T18:01:45.263Z,2.22
2023-05-05T18:06:47.129Z,2.67
2023-05-05T18:11:52.064Z,2.40
2023-05-05T18:16:54.375Z,2.53
2023-05-05T18:21:57.450Z,2.85
2023-05-05T18:26:59.096Z,2.70
2023-05-05T18:32:01.932Z,2.50
2023-05-05T18:37:03.647Z,2.95
2023-05-05T18:42:05.809Z,3.00
2023-05-05T18:47:08.157Z,2.78
2023-05-05T18:52:10.171Z,2.90
2023-05-05T18:57:11.861Z,3.25
2023-05-05T19:02:13.519Z,3.10
2023-05-05T19:07:27.660Z,2.70
2023-05-05T19:12:33.452Z,3.50
2023-05-05T19:17:35.116Z,3.20
2023-05-05T19:22:36.786Z,3.25
2023-05-05T19:27:38.795Z,3.65
2023-05-05T19:32:40.620Z,3.50
2023-05-05T19:37:42.273Z,3.10
2023-05-05T19:42:43.884Z,3.70
2023-05-05T19:47:46.651Z,4.03
2023-05-05T19:52:48.938Z,4.13
2023-05-05T19:57:50.643Z,4.18
2023-05-05T20:02:52.518Z,4.07
2023-05-05T20:07:54.245Z,4.57
2023-05-05T20:12:56.108Z,5.05
2023-05-05T20:17:57.922Z,5.10
2023-05-05T20:22:59.598Z,5.88
2023-05-05T20:28:01.427Z,6.30
2023-05-05T20:33:03.321Z,6.07
2023-05-05T20:38:05.308Z,5.60
2023-05-05T20:43:06.929Z,5.85
2023-05-05T20:48:11.085Z,5.85
2023-05-05T20:53:16.070Z,6.82
2023-05-05T20:58:17.913Z,6.65
2023-05-05T21:03:19.552Z,7.38
2023-05-05T21:08:21.234Z,6.93
2023-05-05T21:13:23.193Z,7.28
2023-05-05T21:18:27.214Z,6.05
2023-05-05T21:23:28.849Z,6.40
2023-05-05T21:28:30.549Z,7.00
2023-05-05T21:33:32.171Z,7.00
2023-05-05T21:38:34.131Z,5.70
2023-05-05T21:43:35.787Z,6.40
2023-05-05T21:48:39.005Z,7.30
2023-05-05T21:53:40.907Z,6.40
2023-05-05T21:58:42.727Z,5.70
2023-05-05T22:03:44.459Z,6.32
2023-05-05T22:08:50.314Z,5.35
2023-05-05T22:13:51.940Z,5.20
2023-05-05T22:18:53.588Z,6.07
2023-05-05T22:23:55.180Z,6.80
2023-05-05T22:28:57.079Z,6.15
2023-05-05T22:33:59.048Z,9.05
2023-05-05T22:39:00.995Z,7.97
2023-05-05T22:44:02.682Z,8.60
2023-05-05T22:49:04.599Z,7.97
2023-05-05T22:54:06.351Z,9.80
2023-05-05T22:59:08.170Z,10.30
2023-05-05T23:04:10.459Z,10.45
2023-05-05T23:09:12.746Z,10.93
2023-05-05T23:14:14.438Z,8.98
2023-05-05T23:19:16.028Z,8.23
2023-05-05T23:24:17.629Z,8.80
2023-05-05T23:29:19.716Z,8.90
2023-05-05T23:34:21.379Z,8.40
2023-05-05T23:39:22.978Z,9.38
2023-05-05T23:44:24.858Z,8.38
2023-05-05T23:49:26.569Z,8.88
2023-05-05T23:54:28.150Z,8.48
2023-05-05T23:59:30.102Z,8.98
